Latest Weather Observations for Ballina

IDN60801

Issued at 4:32 am EST Monday 24 July 2017 (issued every 30 minutes, with the page automatically refreshed every 10 minutes)

About weather observations | Map of weather stations | Latest weather observations for NSW | Other Formats
Station Details ID: 058198 Name: BALLINA AIRPORT AWS Lat: -28.84 Lon: 153.56 Height: 1.3 m
Data from the previous 72 hours. | See also: Recent months at Ballina
Date/Time
EST
Temp
°C
App
Temp
°C
Dew
Point
°C
Rel
Hum
%
Delta-T
°C
Wind Press
QNH
hPa
Press
MSL
hPa
Rain since
9am
mm
Dir  Spd
km/h
Gust
km/h
Spd
kts
Gust
kts
24/04:30am 5.1 3.0 1.6 78 1.4 W 2 9 1 5 1019.1 1019.1 0.0
24/04:00am 7.5 5.2 2.6 71 2.0 WNW 4 7 2 4 1018.9 1018.9 0.0
24/03:30am 8.5 4.9 0.7 58 3.1 WSW 9 11 5 6 1019.1 1019.1 0.0
24/03:00am 12.1 7.4 0.8 46 4.7 NW 15 20 8 11 1018.8 1018.8 0.0
24/02:30am 11.3 7.7 0.4 47 4.5 NW 9 11 5 6 1019.2 1019.2 0.0
24/02:00am 10.8 7.8 0.8 50 4.1 W 6 9 3 5 1019.5 1019.5 0.0
24/01:30am 11.0 7.8 1.0 50 4.2 WNW 7 11 4 6 1019.6 1019.6 0.0
24/01:00am 9.4 6.1 2.5 62 2.9 WNW 9 11 5 6 1019.7 1019.7 0.0
24/12:30am 7.9 6.5 3.4 73 1.9 CALM 0 7 0 4 1019.8 1019.8 0.0
24/12:00am 8.4 5.7 2.8 68 2.4 W 6 7 3 4 1019.9 1019.9 0.0
 
Date/Time
EST
Temp
°C
App
Temp
°C
Dew
Point
°C
Rel
Hum
%
Delta-T
°C
Wind Press
QNH
hPa
Press
MSL
hPa
Rain since
9am
mm
Dir  Spd
km/h
Gust
km/h
Spd
kts
Gust
kts
23/11:30pm 8.0 6.6 3.7 74 1.8 CALM 0 6 0 3 1019.8 1019.8 0.0
23/11:00pm 8.6 6.0 3.4 70 2.2 W 6 7 3 4 1020.0 1020.0 0.0
23/10:30pm 9.5 6.9 5.9 78 1.6 WNW 9 15 5 8 1019.9 1019.9 0.0
23/10:00pm 9.8 8.8 5.4 74 2.0 CALM 0 0 0 0 1019.8 1019.8 0.0
23/09:30pm 12.5 8.8 2.1 49 4.5 WNW 11 15 6 8 1019.8 1019.8 0.0
23/09:00pm 13.0 9.2 1.7 46 4.8 W 11 15 6 8 1019.6 1019.6 0.0
23/08:30pm 8.8 5.9 4.8 76 1.8 W 9 13 5 7 1019.4 1019.4 0.0
23/08:00pm 8.6 6.9 5.9 83 1.2 NW 4 7 2 4 1019.2 1019.2 0.0
23/07:30pm 9.8 9.0 6.5 80 1.5 CALM 0 0 0 0 1019.1 1019.1 0.0
23/07:00pm 10.5 9.7 6.5 76 1.9 CALM 0 0 0 0 1018.9 1018.9 0.0
23/06:30pm 12.1 11.4 6.8 70 2.5 CALM 0 0 0 0 1018.4 1018.4 0.0
23/06:00pm 12.8 11.2 6.2 64 3.1 NW 4 7 2 4 1018.0 1018.0 0.0
23/05:30pm 14.3 12.3 6.4 59 3.8 NW 6 7 3 4 1017.7 1017.7 0.0
23/05:00pm 17.6 14.9 5.5 45 5.8 NW 9 13 5 7 1017.6 1017.6 0.0
23/04:30pm 20.3 16.3 2.6 31 8.2 WNW 13 19 7 10 1017.4 1017.4 0.0
23/04:00pm 21.4 16.1 1.7 27 9.1 WNW 19 24 10 13 1017.4 1017.4 0.0
23/03:30pm 22.1 17.2 2.2 27 9.3 WNW 17 22 9 12 1017.2 1017.2 0.0
23/03:00pm 22.0 15.9 0.5 24 9.7 WNW 22 30 12 16 1017.2 1017.2 0.0
23/02:30pm 22.1 16.6 0.6 24 9.8 WNW 19 26 10 14 1017.2 1017.2 0.0
23/02:00pm 22.3 16.9 2.4 27 9.4 WNW 20 26 11 14 1017.4 1017.4 0.0
23/01:30pm 21.9 16.0 1.6 26 9.4 WNW 22 28 12 15 1017.7 1017.7 0.0
23/01:00pm 21.7 16.3 1.4 26 9.3 WNW 19 28 10 15 1018.1 1018.1 0.0
23/12:30pm 21.9 16.9 3.6 30 8.8 WNW 19 28 10 15 1018.6 1018.6 0.0
23/12:00pm 21.9 17.0 5.3 34 8.2 WNW 20 33 11 18 1019.4 1019.4 0.0
23/11:30am 20.9 15.4 6.1 38 7.4 WNW 24 33 13 18 1020.0 1020.0 0.0
23/11:00am 20.1 16.0 6.1 40 7.0 WNW 17 30 9 16 1020.6 1020.6 0.0
23/10:30am 19.1 14.7 7.2 46 6.0 NW 20 32 11 17 1021.2 1021.2 0.0
23/10:00am 18.7 15.5 8.4 51 5.3 NNW 15 20 8 11 1021.5 1021.5 0.0
23/09:30am 17.3 15.6 9.7 61 4.0 NNW 9 13 5 7 1021.7 1021.7 0.0
23/09:00am 14.8 13.0 10.8 77 2.1 NW 11 13 6 7 1022.0 1022.0 0.0
23/08:30am 12.9 13.7 12.7 99 0.1 CALM 0 0 0 0 1022.1 1022.1 0.0
23/08:00am 9.7 9.6 9.6 99 0.0 CALM 0 0 0 0 1022.1 1022.1 0.0
23/07:30am 7.0 6.3 6.9 99 0.0 CALM 0 0 0 0 1022.1 1022.1 0.0
23/07:16am 5.8 4.8 5.7 99 0.0 CALM 0 0 0 0 1022.0 1022.0 0.0
23/07:00am 5.3 4.2 5.2 99 0.0 CALM 0 0 0 0 1021.8 1021.8 0.0
23/06:30am 4.6 3.4 4.5 99 0.0 CALM 0 0 0 0 1021.4 1021.4 0.0
23/06:15am 4.4 3.1 4.3 99 0.0 CALM 0 0 0 0 1021.3 1021.3 0.0
23/06:00am 5.3 4.2 5.2 99 0.0 CALM 0 0 0 0 1021.1 1021.1 0.0
23/05:58am 5.4 4.3 5.3 99 0.0 CALM 0 0 0 0 1021.1 1021.1 0.0
23/05:30am 5.5 4.5 5.4 99 0.0 CALM 0 0 0 0 1020.9 1020.9 0.0
23/05:29am 5.6 4.6 5.5 99 0.0 CALM 0 0 0 0 1020.9 1020.9 0.0
23/05:19am 5.5 4.5 5.4 99 0.0 CALM 0 0 0 0 1020.9 1020.9 0.0
23/05:00am 5.5 4.5 5.4 99 0.0 CALM 0 0 0 0 1020.9 1020.9 0.0
23/04:30am 5.6 4.6 5.5 99 0.0 CALM 0 0 0 0 1020.8 1020.8 0.0
23/04:00am 6.9 6.2 6.8 99 0.0 CALM 0 0 0 0 1020.7 1020.7 0.0
23/03:30am 6.4 5.6 6.3 99 0.0 CALM 0 0 0 0 1020.8 1020.8 0.0
23/03:00am 5.9 4.9 5.6 98 0.1 CALM 0 0 0 0 1021.1 1021.1 0.0
23/02:30am 6.6 5.8 6.3 98 0.1 CALM 0 0 0 0 1021.3 1021.3 0.0
23/02:00am 6.8 6.0 6.5 98 0.1 CALM 0 0 0 0 1021.4 1021.4 0.0
23/01:50am 6.7 5.9 6.4 98 0.1 CALM 0 0 0 0 1021.5 1021.5 0.0
23/01:40am 6.8 6.0 6.5 98 0.1 CALM 0 0 0 0 1021.5 1021.5 0.0
23/01:30am 7.2 6.5 6.9 98 0.1 CALM 0 0 0 0 1021.6 1021.6 0.0
23/01:00am 7.2 6.5 6.9 98 0.1 CALM 0 0 0 0 1021.7 1021.7 0.0
23/12:30am 7.3 6.6 7.0 98 0.1 CALM 0 0 0 0 1021.9 1021.9 0.0
23/12:15am 7.2 6.5 6.8 97 0.2 CALM 0 0 0 0 1022.0 1022.0 0.0
23/12:07am 7.1 6.3 6.7 97 0.2 CALM 0 0 0 0 1022.1 1022.1 0.0
23/12:00am 7.2 6.5 6.8 97 0.2 CALM 0 0 0 0 1022.1 1022.1 0.0
 
Date/Time
EST
Temp
°C
App
Temp
°C
Dew
Point
°C
Rel
Hum
%
Delta-T
°C
Wind Press
QNH
hPa
Press
MSL
hPa
Rain since
9am
mm
Dir  Spd
km/h
Gust
km/h
Spd
kts
Gust
kts
22/11:32pm 7.1 6.3 6.7 97 0.2 CALM 0 0 0 0 1022.2 1022.2 0.0
22/11:30pm 7.4 6.7 7.0 97 0.2 CALM 0 0 0 0 1022.2 1022.2 0.0
22/11:15pm 7.7 7.1 7.3 97 0.2 CALM 0 0 0 0 1022.2 1022.2 0.0
22/11:05pm 7.7 7.1 7.3 97 0.2 CALM 0 0 0 0 1022.2 1022.2 0.0
22/11:00pm 7.7 7.1 7.3 97 0.2 CALM 0 0 0 0 1022.2 1022.2 0.0
22/10:30pm 7.6 6.9 7.0 96 0.3 CALM 0 0 0 0 1022.2 1022.2 0.0
22/10:18pm 7.5 6.8 6.9 96 0.3 CALM 0 0 0 0 1022.3 1022.3 0.0
22/10:00pm 7.9 7.3 7.3 96 0.3 CALM 0 0 0 0 1022.4 1022.4 0.0
22/09:58pm 7.9 7.3 7.3 96 0.3 CALM 0 0 0 0 1022.3 1022.3 0.0
22/09:50pm 7.9 7.3 7.3 96 0.3 CALM 0 0 0 0 1022.4 1022.4 0.0
22/09:30pm 7.9 7.2 7.1 95 0.4 CALM 0 0 0 0 1022.3 1022.3 0.0
22/09:21pm 8.0 7.4 7.2 95 0.4 CALM 0 0 0 0 1022.3 1022.3 0.0
22/09:20pm 8.0 7.4 7.2 95 0.4 CALM 0 0 0 0 1022.3 1022.3 0.0
22/09:00pm 8.1 7.5 7.3 95 0.4 CALM 0 0 0 0 1022.4 1022.4 0.0
22/08:54pm 8.6 8.1 7.8 95 0.4 CALM 0 0 0 0 1022.4 1022.4 0.0
22/08:30pm 8.6 8.1 7.7 94 0.4 CALM 0 0 0 0 1022.4 1022.4 0.0
22/08:14pm 9.0 8.6 8.1 94 0.4 CALM 0 0 0 0 1022.4 1022.4 0.0
22/08:00pm 9.1 8.6 8.0 93 0.5 CALM 0 0 0 0 1022.2 1022.2 0.0
22/07:54pm 9.0 8.5 7.9 93 0.5 CALM 0 0 0 0 1022.2 1022.2 0.0
22/07:30pm 9.7 9.4 8.5 92 0.6 CALM 0 0 0 0 1022.0 1022.0 0.0
22/07:00pm 10.7 10.2 9.3 91 0.7 SE 2 6 1 3 1021.9 1021.9 0.0
22/06:30pm 11.0 10.8 9.1 88 0.9 CALM 0 0 0 0 1021.7 1021.7 0.0
22/06:00pm 12.1 12.1 9.8 86 1.2 CALM 0 0 0 0 1021.5 1021.5 0.0
22/05:30pm 13.6 13.6 9.8 78 2.0 CALM 0 0 0 0 1021.5 1021.5 0.0
22/05:00pm 15.4 13.9 8.6 64 3.4 SSE 6 9 3 5 1021.2 1021.2 0.0
22/04:30pm 17.1 15.1 8.8 58 4.3 SSE 9 13 5 7 1021.1 1021.1 0.0
22/04:00pm 17.8 15.5 8.9 56 4.6 SE 11 15 6 8 1021.0 1021.0 0.0
22/03:30pm 18.1 15.4 8.9 55 4.8 SE 13 17 7 9 1021.0 1021.0 0.0
22/03:00pm 18.6 16.2 8.6 52 5.2 SSE 11 15 6 8 1021.0 1021.0 0.0
22/02:30pm 18.9 16.5 8.8 52 5.3 SSE 11 17 6 9 1021.3 1021.3 0.0
22/02:00pm 19.0 16.3 7.4 47 5.9 SSW 11 17 6 9 1021.6 1021.6 0.0
22/01:30pm 19.4 16.6 8.4 49 5.7 S 13 19 7 10 1021.9 1021.9 0.0
22/01:00pm 19.2 16.6 7.9 48 5.8 SW 11 20 6 11 1022.3 1022.3 0.0
22/12:30pm 18.3 14.6 6.2 45 6.0 SW 15 22 8 12 1022.7 1022.7 0.0
22/12:00pm 18.0 13.8 5.9 45 5.9 SW 17 24 9 13 1023.0 1023.0 0.0
22/11:30am 17.9 13.9 6.7 48 5.6 SW 17 22 9 12 1023.6 1023.6 0.0
22/11:00am 17.9 13.7 5.5 44 6.0 SW 17 22 9 12 1024.1 1024.1 0.0
22/10:30am 17.2 12.8 4.5 43 6.0 WSW 17 24 9 13 1024.4 1024.4 0.0
22/10:00am 16.6 12.2 4.9 46 5.5 SW 17 22 9 12 1024.6 1024.6 0.0
22/09:30am 15.3 11.6 4.4 48 5.1 SW 13 17 7 9 1024.8 1024.8 0.0
22/09:00am 13.7 9.7 5.1 56 4.0 WSW 15 19 8 10 1024.8 1024.8 0.0
22/08:30am 12.7 8.3 4.7 58 3.7 WSW 17 20 9 11 1024.7 1024.7 0.0
22/08:00am 11.4 7.3 4.6 63 3.1 WSW 15 17 8 9 1024.5 1024.5 0.0
22/07:30am 9.8 5.5 3.5 65 2.7 WSW 15 19 8 10 1024.1 1024.1 0.0
22/07:00am 6.4 2.9 3.7 83 1.1 WSW 11 13 6 7 1023.9 1023.9 0.0
22/06:30am 5.5 2.5 4.0 90 0.6 WSW 9 11 5 6 1023.4 1023.4 0.0
22/06:00am 5.1 3.7 3.6 90 0.6 CALM 0 0 0 0 1023.0 1023.0 0.0
22/05:30am 5.6 4.2 3.6 87 0.8 CALM 0 0 0 0 1022.8 1022.8 0.0
22/05:00am 7.2 4.0 3.1 75 1.7 W 9 11 5 6 1022.4 1022.4 0.0
22/04:30am 8.6 4.7 3.6 71 2.2 WSW 13 15 7 8 1022.1 1022.1 0.0
22/04:00am 9.1 4.8 3.5 68 2.4 WSW 15 17 8 9 1022.1 1022.1 0.0
22/03:30am 9.1 5.3 3.7 69 2.3 WSW 13 15 7 8 1022.1 1022.1 0.0
22/03:00am 9.7 6.0 4.3 69 2.4 WSW 13 17 7 9 1022.2 1022.2 0.0
22/02:30am 9.3 5.6 4.5 72 2.1 WSW 13 17 7 9 1021.9 1021.9 0.0
22/02:00am 9.0 5.3 4.4 73 2.0 W 13 15 7 8 1021.9 1021.9 0.0
22/01:30am 8.4 4.6 3.8 73 2.0 WSW 13 15 7 8 1022.1 1022.1 0.0
22/01:00am 9.2 5.1 4.4 72 2.1 WSW 15 17 8 9 1022.0 1022.0 0.0
22/12:30am 9.4 5.0 4.8 73 2.1 WSW 17 19 9 10 1022.1 1022.1 0.0
22/12:00am 9.6 5.7 5.2 74 2.0 WSW 15 19 8 10 1022.1 1022.1 0.0
 
Date/Time
EST
Temp
°C
App
Temp
°C
Dew
Point
°C
Rel
Hum
%
Delta-T
°C
Wind Press
QNH
hPa
Press
MSL
hPa
Rain since
9am
mm
Dir  Spd
km/h
Gust
km/h
Spd
kts
Gust
kts
21/11:30pm 7.1 4.3 5.1 87 0.9 W 9 11 5 6 1022.3 1022.3 0.0
21/11:00pm 7.7 4.8 4.8 82 1.3 WSW 9 13 5 7 1022.5 1022.5 0.0
21/10:30pm 7.7 5.3 5.2 84 1.1 W 7 9 4 5 1022.6 1022.6 0.0
21/10:00pm 8.7 7.9 6.3 85 1.1 CALM 0 0 0 0 1022.4 1022.4 0.0
21/09:30pm 8.4 6.3 5.7 83 1.2 W 6 7 3 4 1022.2 1022.2 0.0
21/09:00pm 7.8 4.9 4.9 82 1.3 W 9 9 5 5 1021.9 1021.9 0.0
21/08:30pm 9.0 6.8 6.1 82 1.3 W 7 7 4 4 1021.8 1021.8 0.0
21/08:00pm 8.3 6.1 5.4 82 1.3 W 6 7 3 4 1021.7 1021.7 0.0
21/07:30pm 8.3 6.2 5.6 83 1.2 W 6 7 3 4 1021.6 1021.6 0.0
21/07:00pm 9.0 6.6 5.4 78 1.6 W 7 9 4 5 1021.3 1021.3 0.0
21/06:30pm 8.9 6.0 4.9 76 1.8 W 9 19 5 10 1021.1 1021.1 0.0
21/06:00pm 9.3 6.9 5.1 75 1.9 W 7 9 4 5 1020.8 1020.8 0.0
21/05:30pm 10.4 7.6 5.2 70 2.4 WSW 9 11 5 6 1020.4 1020.4 0.0
21/05:00pm 14.4 10.9 1.3 41 5.6 SSW 9 13 5 7 1020.0 1020.0 0.0
21/04:30pm 15.2 11.3 1.4 39 6.0 SSW 11 15 6 8 1019.7 1019.7 0.0
21/04:00pm 15.8 11.6 1.5 38 6.3 S 13 20 7 11 1019.4 1019.4 0.0
21/03:30pm 16.3 11.3 1.6 37 6.5 S 17 24 9 13 1019.3 1019.3 0.0
21/03:00pm 16.5 10.6 1.8 37 6.5 S 22 28 12 15 1019.1 1019.1 0.0
21/02:30pm 16.7 11.5 2.7 39 6.4 S 19 26 10 14 1019.0 1019.0 0.0
21/02:00pm 16.4 10.7 2.8 40 6.1 S 22 30 12 16 1019.0 1019.0 0.0
21/01:30pm 16.6 11.4 2.6 39 6.3 S 19 24 10 13 1018.9 1018.9 0.0
21/01:00pm 17.0 12.5 4.0 42 6.1 SSW 17 28 9 15 1018.9 1018.9 0.0
21/12:30pm 15.9 11.1 2.7 41 5.9 SSW 17 28 9 15 1019.1 1019.1 0.0
21/12:00pm 16.0 11.0 3.8 44 5.6 S 19 28 10 15 1019.6 1019.6 0.0
21/11:30am 16.0 10.9 2.8 41 6.0 SW 19 28 10 15 1019.8 1019.8 0.0
21/11:00am 15.5 10.3 2.7 42 5.7 SW 19 26 10 14 1020.2 1020.2 0.0
21/10:30am 14.9 10.0 1.8 41 5.7 SW 17 24 9 13 1020.6 1020.6 0.0
21/10:00am 14.2 8.7 1.8 43 5.4 WSW 20 28 11 15 1020.5 1020.5 0.0
21/09:30am 13.9 8.4 1.9 44 5.2 WSW 20 28 11 15 1020.3 1020.3 0.0
21/09:00am 13.1 7.6 0.8 43 5.2 WSW 19 24 10 13 1020.1 1020.1 0.0
21/08:30am 12.4 7.1 1.7 48 4.6 WSW 19 24 10 13 1019.6 1019.6 0.0
21/08:00am 11.4 7.3 2.2 53 3.9 WSW 13 19 7 10 1019.2 1019.2 0.0
21/07:30am 9.4 5.6 2.0 60 3.1 WSW 11 13 6 7 1018.8 1018.8 0.0
21/07:00am 7.9 4.0 1.3 63 2.7 WSW 11 13 6 7 1018.5 1018.5 0.0
21/06:30am 8.2 4.0 1.4 62 2.8 WSW 13 17 7 9 1018.1 1018.1 0.0
21/06:00am 7.5 3.8 2.2 69 2.2 WSW 11 15 6 8 1017.9 1017.9 0.0
21/05:30am 6.0 2.6 1.7 74 1.7 WSW 9 11 5 6 1017.4 1017.4 0.0
21/05:00am 7.7 4.4 2.4 69 2.2 WSW 9 11 5 6 1017.1 1017.1 0.0

Other Formats:

Comma delimited format used in spreadsheet applications
http://www.bom.gov.au/fwo/IDN60801/IDN60801.94596.axf

JavaScript Object Notation format (JSON) in row-major order
http://www.bom.gov.au/fwo/IDN60801/IDN60801.94596.json